Wetterdaten: Woche 11.05.09 - 17.05.09 (KW20)
Datum Zeit Temperatur Luftfeuchte Luftdruck Niederschlag Windrichtung Wind
11.05.2009 00:00 14,6 C 81 % 1014,7 hPa 0,0 l/m NO 4,3 km/h (1 Bft)
11.05.2009 01:00 14,6 C 84 % 1014,5 hPa 0,0 l/m O-NO 4,8 km/h (1 Bft)
11.05.2009 02:00 14,3 C 88 % 1014,5 hPa 0,0 l/m N-NW 5,9 km/h (2 Bft)
11.05.2009 03:00 13,4 C 89 % 1014,6 hPa 0,0 l/m N-NO 11,8 km/h (2 Bft)
11.05.2009 04:00 13,0 C 90 % 1014,3 hPa 0,0 l/m NO 5,2 km/h (1 Bft)
11.05.2009 05:00 12,0 C 92 % 1014,2 hPa 0,0 l/m N 1,3 km/h (1 Bft)
11.05.2009 06:00 11,4 C 94 % 1014,2 hPa 0,0 l/m N 0,8 km/h (0 Bft)
11.05.2009 07:00 13,3 C 89 % 1014,0 hPa 0,0 l/m O-NO 1,7 km/h (1 Bft)
11.05.2009 08:00 14,8 C 83 % 1013,6 hPa 0,0 l/m NO 4,1 km/h (1 Bft)
11.05.2009 09:00 16,0 C 81 % 1013,8 hPa 0,0 l/m NO 4,1 km/h (1 Bft)
11.05.2009 10:00 16,4 C 82 % 1014,2 hPa 0,0 l/m N-NW 8,6 km/h (2 Bft)
11.05.2009 11:00 16,4 C 84 % 1014,1 hPa 0,0 l/m O-SO 5,3 km/h (1 Bft)
11.05.2009 12:00 18,5 C 73 % 1013,6 hPa 0,0 l/m S-SW 7,6 km/h (2 Bft)
11.05.2009 13:00 19,9 C 66 % 1013,1 hPa 0,0 l/m SW 10,3 km/h (2 Bft)
11.05.2009 14:00 20,8 C 58 % 1012,8 hPa 0,0 l/m SW 13,8 km/h (3 Bft)
11.05.2009 15:00 19,9 C 56 % 1013,3 hPa 0,0 l/m W-SW 23,2 km/h (4 Bft)
11.05.2009 16:00 18,3 C 64 % 1013,3 hPa 0,2 l/m W-SW 23,6 km/h (4 Bft)
11.05.2009 17:00 19,1 C 66 % 1012,3 hPa 0,0 l/m S 16,0 km/h (3 Bft)
11.05.2009 18:00 18,2 C 73 % 1012,2 hPa 0,0 l/m SW 13,4 km/h (3 Bft)
11.05.2009 19:00 17,3 C 79 % 1011,9 hPa 0,0 l/m SW 13,0 km/h (3 Bft)
11.05.2009 20:00 16,3 C 79 % 1012,1 hPa 0,0 l/m S-SW 3,1 km/h (1 Bft)
11.05.2009 21:00 14,9 C 83 % 1012,4 hPa 0,0 l/m S-SW 0,9 km/h (0 Bft)
11.05.2009 22:00 14,2 C 87 % 1012,6 hPa 0,0 l/m N 0,1 km/h (0 Bft)
11.05.2009 23:00 14,4 C 90 % 1013,1 hPa 0,8 l/m N 5,6 km/h (1 Bft)
12.05.2009 00:00 13,8 C 92 % 1013,6 hPa 0,0 l/m N-NO 5,1 km/h (1 Bft)
12.05.2009 01:00 12,3 C 92 % 1013,8 hPa 0,0 l/m N-NO 3,3 km/h (1 Bft)
12.05.2009 02:00 11,4 C 95 % 1013,6 hPa 0,0 l/m N 2,9 km/h (1 Bft)
12.05.2009 03:00 11,1 C 95 % 1013,6 hPa 0,0 l/m N-NW 5,7 km/h (1 Bft)
12.05.2009 04:00 10,7 C 94 % 1013,5 hPa 0,0 l/m N-NW 6,3 km/h (2 Bft)
12.05.2009 05:00 10,8 C 95 % 1013,7 hPa 0,0 l/m N 8,2 km/h (2 Bft)
12.05.2009 06:00 11,1 C 95 % 1013,9 hPa 0,0 l/m N 7,2 km/h (2 Bft)
12.05.2009 07:00 11,6 C 95 % 1014,0 hPa 0,2 l/m NO 7,9 km/h (2 Bft)
12.05.2009 08:00 12,7 C 93 % 1014,2 hPa 0,0 l/m O-NO 7,2 km/h (2 Bft)
12.05.2009 09:00 14,2 C 89 % 1014,3 hPa 0,0 l/m O 11,8 km/h (2 Bft)
12.05.2009 10:00 15,0 C 88 % 1015,1 hPa 0,0 l/m NW 9,3 km/h (2 Bft)
12.05.2009 11:00 15,5 C 87 % 1015,2 hPa 0,2 l/m O-NO 15,6 km/h (3 Bft)
12.05.2009 12:00 15,6 C 85 % 1015,2 hPa 0,2 l/m O-NO 10,5 km/h (2 Bft)
12.05.2009 13:00 16,5 C 84 % 1015,1 hPa 0,0 l/m O-NO 12,8 km/h (3 Bft)
12.05.2009 14:00 17,1 C 82 % 1015,3 hPa 0,0 l/m N-NO 16,5 km/h (3 Bft)
12.05.2009 15:00 17,4 C 77 % 1015,5 hPa 0,0 l/m NO 19,0 km/h (3 Bft)
12.05.2009 16:00 16,5 C 79 % 1015,8 hPa 0,0 l/m O 14,6 km/h (3 Bft)
12.05.2009 17:00 15,4 C 85 % 1016,4 hPa 0,4 l/m O-SO 11,6 km/h (2 Bft)
12.05.2009 18:00 15,7 C 87 % 1015,3 hPa 0,0 l/m O-SO 10,3 km/h (2 Bft)
12.05.2009 19:00 16,7 C 82 % 1015,1 hPa 0,0 l/m O-NO 8,4 km/h (2 Bft)
12.05.2009 20:00 15,9 C 87 % 1014,6 hPa 0,0 l/m O 5,7 km/h (1 Bft)
12.05.2009 21:00 14,9 C 92 % 1014,7 hPa 0,2 l/m N-NW 7,2 km/h (2 Bft)
12.05.2009 22:00 13,9 C 95 % 1015,0 hPa 0,0 l/m N 5,5 km/h (1 Bft)
12.05.2009 23:00 13,4 C 96 % 1015,5 hPa 0,2 l/m N 8,4 km/h (2 Bft)
13.05.2009 00:00 13,1 C 97 % 1015,3 hPa 0,6 l/m SO 4,5 km/h (1 Bft)
13.05.2009 01:00 12,9 C 97 % 1015,0 hPa 0,6 l/m W 3,9 km/h (1 Bft)
13.05.2009 02:00 12,8 C 98 % 1015,1 hPa 0,2 l/m W 4,4 km/h (1 Bft)
13.05.2009 03:00 12,7 C 98 % 1015,0 hPa 0,0 l/m N-NW 3,7 km/h (1 Bft)
13.05.2009 04:00 12,7 C 98 % 1014,6 hPa 0,4 l/m N-NW 3,1 km/h (1 Bft)
13.05.2009 05:00 12,7 C 98 % 1014,6 hPa 0,2 l/m N 1,2 km/h (1 Bft)
13.05.2009 06:00 12,6 C 98 % 1014,4 hPa 0,0 l/m N 1,2 km/h (1 Bft)
13.05.2009 07:00 12,7 C 98 % 1014,5 hPa 0,0 l/m N-NO 5,1 km/h (1 Bft)
13.05.2009 08:00 13,3 C 96 % 1014,7 hPa 0,0 l/m O-NO 4,4 km/h (1 Bft)
13.05.2009 09:00 14,5 C 91 % 1014,8 hPa 0,0 l/m NO 4,7 km/h (1 Bft)
13.05.2009 10:00 16,1 C 86 % 1014,4 hPa 0,0 l/m NO 5,9 km/h (2 Bft)
13.05.2009 11:00 17,8 C 78 % 1014,3 hPa 0,0 l/m O-NO 7,9 km/h (2 Bft)
13.05.2009 12:00 19,2 C 70 % 1013,8 hPa 0,0 l/m SO 9,5 km/h (2 Bft)
13.05.2009 13:00 20,5 C 65 % 1013,3 hPa 0,0 l/m SO 10,3 km/h (2 Bft)
13.05.2009 14:00 21,1 C 63 % 1012,6 hPa 0,0 l/m O-SO 11,3 km/h (2 Bft)
13.05.2009 15:00 21,9 C 59 % 1011,9 hPa 0,0 l/m SO 12,9 km/h (3 Bft)
13.05.2009 16:00 19,5 C 75 % 1011,5 hPa 0,0 l/m O-NO 20,1 km/h (4 Bft)
13.05.2009 17:00 15,8 C 89 % 1011,5 hPa 5,8 l/m N-NO 16,1 km/h (3 Bft)
13.05.2009 18:00 15,5 C 94 % 1011,1 hPa 0,2 l/m NO 4,8 km/h (1 Bft)
13.05.2009 19:00 14,9 C 97 % 1011,4 hPa 6,2 l/m O 5,8 km/h (1 Bft)
13.05.2009 20:00 14,7 C 98 % 1011,8 hPa 2,0 l/m O-SO 4,5 km/h (1 Bft)
13.05.2009 21:00 14,5 C 98 % 1011,8 hPa 0,4 l/m O-SO 2,1 km/h (1 Bft)
13.05.2009 22:00 14,2 C 98 % 1011,2 hPa 0,0 l/m N 1,9 km/h (1 Bft)
13.05.2009 23:00 13,9 C 98 % 1010,7 hPa 0,2 l/m S-SW 5,2 km/h (1 Bft)
14.05.2009 00:00 13,9 C 98 % 1010,4 hPa 0,6 l/m SW 6,6 km/h (2 Bft)
14.05.2009 01:00 13,8 C 97 % 1009,9 hPa 0,2 l/m N-NO 2,7 km/h (1 Bft)
14.05.2009 02:00 13,4 C 97 % 1009,2 hPa 0,0 l/m N-NO 2,3 km/h (1 Bft)
14.05.2009 03:00 13,2 C 98 % 1008,8 hPa 0,0 l/m N 1,2 km/h (1 Bft)
14.05.2009 04:00 13,2 C 98 % 1008,5 hPa 0,0 l/m N-NO 1,2 km/h (1 Bft)
14.05.2009 05:00 13,2 C 98 % 1008,3 hPa 0,2 l/m N 0,4 km/h (0 Bft)
14.05.2009 06:00 13,2 C 98 % 1008,1 hPa 0,4 l/m N-NO 2,4 km/h (1 Bft)
14.05.2009 07:00 13,3 C 98 % 1007,7 hPa 0,0 l/m S-SW 6,8 km/h (2 Bft)
14.05.2009 08:00 14,0 C 98 % 1007,5 hPa 0,0 l/m SW 8,7 km/h (2 Bft)
14.05.2009 09:00 15,3 C 96 % 1007,2 hPa 0,0 l/m W-SW 6,8 km/h (2 Bft)
14.05.2009 10:00 15,9 C 94 % 1007,2 hPa 0,0 l/m W 5,6 km/h (1 Bft)
14.05.2009 11:00 17,4 C 86 % 1007,0 hPa 0,0 l/m W 11,0 km/h (2 Bft)
14.05.2009 12:00 18,7 C 75 % 1006,8 hPa 0,0 l/m W-SW 14,0 km/h (3 Bft)
14.05.2009 13:00 19,7 C 68 % 1006,3 hPa 0,0 l/m W-SW 14,1 km/h (3 Bft)
14.05.2009 14:00 17,5 C 77 % 1006,3 hPa 6,6 l/m W 13,6 km/h (3 Bft)
14.05.2009 15:00 15,8 C 90 % 1006,3 hPa 1,2 l/m N-NW 4,5 km/h (1 Bft)
14.05.2009 16:00 16,1 C 88 % 1005,9 hPa 0,0 l/m NO 4,4 km/h (1 Bft)
14.05.2009 17:00 16,6 C 87 % 1005,3 hPa 0,0 l/m NO 5,6 km/h (1 Bft)
14.05.2009 18:00 16,5 C 87 % 1005,2 hPa 0,0 l/m O-NO 7,6 km/h (2 Bft)
14.05.2009 19:00 16,1 C 92 % 1005,5 hPa 0,4 l/m O-NO 6,7 km/h (2 Bft)
14.05.2009 20:00 15,6 C 93 % 1005,1 hPa 0,0 l/m O-NO 9,3 km/h (2 Bft)
14.05.2009 21:00 14,9 C 95 % 1005,5 hPa 0,0 l/m N-NO 5,2 km/h (1 Bft)
14.05.2009 22:00 14,3 C 97 % 1005,6 hPa 0,0 l/m N-NO 4,4 km/h (1 Bft)
14.05.2009 23:00 14,0 C 97 % 1005,6 hPa 0,0 l/m N-NW 6,1 km/h (2 Bft)
15.05.2009 00:00 13,6 C 97 % 1005,8 hPa 0,0 l/m N-NO 7,9 km/h (2 Bft)
15.05.2009 01:00 13,1 C 98 % 1005,5 hPa 0,0 l/m N-NO 7,0 km/h (2 Bft)
15.05.2009 02:00 13,1 C 98 % 1005,5 hPa 0,0 l/m O-NO 3,5 km/h (1 Bft)
15.05.2009 03:00 13,1 C 97 % 1005,6 hPa 0,0 l/m N 0,8 km/h (0 Bft)
15.05.2009 04:00 13,1 C 97 % 1005,4 hPa 0,0 l/m NO 2,3 km/h (1 Bft)
15.05.2009 05:00 13,1 C 97 % 1005,4 hPa 0,0 l/m O-NO 3,5 km/h (1 Bft)
15.05.2009 06:00 12,9 C 97 % 1005,2 hPa 0,0 l/m O 4,8 km/h (1 Bft)
15.05.2009 07:00 13,1 C 97 % 1005,3 hPa 0,0 l/m O 3,2 km/h (1 Bft)
15.05.2009 08:00 13,6 C 95 % 1005,5 hPa 0,0 l/m O 2,4 km/h (1 Bft)
15.05.2009 09:00 13,9 C 94 % 1005,7 hPa 0,0 l/m N-NO 4,9 km/h (1 Bft)
15.05.2009 10:00 14,2 C 93 % 1005,6 hPa 0,0 l/m N-NO 7,0 km/h (2 Bft)
15.05.2009 11:00 14,4 C 92 % 1005,5 hPa 0,0 l/m N-NW 8,7 km/h (2 Bft)
15.05.2009 12:00 15,8 C 87 % 1005,6 hPa 0,0 l/m N 11,4 km/h (2 Bft)
15.05.2009 13:00 17,0 C 81 % 1005,2 hPa 0,0 l/m N-NO 12,5 km/h (3 Bft)
15.05.2009 14:00 18,0 C 76 % 1004,9 hPa 0,0 l/m NO 10,3 km/h (2 Bft)
15.05.2009 15:00 18,1 C 76 % 1004,8 hPa 0,0 l/m O-NO 10,9 km/h (2 Bft)
15.05.2009 16:00 18,1 C 75 % 1004,4 hPa 0,0 l/m O-SO 11,3 km/h (2 Bft)
15.05.2009 17:00 15,5 C 83 % 1004,7 hPa 9,2 l/m N 18,0 km/h (3 Bft)
15.05.2009 18:00 12,5 C 92 % 1005,9 hPa 0,8 l/m O 9,9 km/h (2 Bft)
15.05.2009 19:00 12,1 C 95 % 1007,0 hPa 1,0 l/m SW 5,2 km/h (1 Bft)
15.05.2009 20:00 12,6 C 96 % 1007,9 hPa 0,4 l/m NW 7,2 km/h (2 Bft)
15.05.2009 21:00 12,3 C 95 % 1009,0 hPa 0,4 l/m W 16,0 km/h (3 Bft)
15.05.2009 22:00 11,4 C 94 % 1009,9 hPa 0,2 l/m W-NW 10,1 km/h (2 Bft)
15.05.2009 23:00 11,0 C 94 % 1010,6 hPa 0,0 l/m W-NW 8,0 km/h (2 Bft)
16.05.2009 00:00 10,6 C 94 % 1011,2 hPa 0,2 l/m W-SW 4,9 km/h (1 Bft)
16.05.2009 01:00 10,5 C 96 % 1011,6 hPa 0,6 l/m W-SW 6,0 km/h (2 Bft)
16.05.2009 02:00 10,2 C 94 % 1012,2 hPa 1,0 l/m W 9,2 km/h (2 Bft)
16.05.2009 03:00 9,8 C 96 % 1012,6 hPa 0,4 l/m W 4,4 km/h (1 Bft)
16.05.2009 04:00 10,0 C 97 % 1012,6 hPa 0,2 l/m SW 7,5 km/h (2 Bft)
16.05.2009 05:00 9,8 C 97 % 1012,7 hPa 0,0 l/m SW 6,8 km/h (2 Bft)
16.05.2009 06:00 9,8 C 97 % 1013,2 hPa 0,0 l/m SW 8,3 km/h (2 Bft)
16.05.2009 07:00 10,1 C 97 % 1013,8 hPa 0,0 l/m SW 7,1 km/h (2 Bft)
16.05.2009 08:00 10,5 C 95 % 1014,3 hPa 0,0 l/m SW 7,7 km/h (2 Bft)
16.05.2009 09:00 10,7 C 95 % 1014,4 hPa 0,4 l/m S 6,7 km/h (2 Bft)
16.05.2009 10:00 11,6 C 89 % 1014,8 hPa 0,0 l/m NW 10,1 km/h (2 Bft)
16.05.2009 11:00 12,0 C 86 % 1015,0 hPa 0,0 l/m N 5,7 km/h (1 Bft)
16.05.2009 12:00 14,2 C 78 % 1014,8 hPa 0,0 l/m SW 10,7 km/h (2 Bft)
16.05.2009 13:00 15,3 C 70 % 1014,7 hPa 0,0 l/m S 12,2 km/h (2 Bft)
16.05.2009 14:00 16,5 C 63 % 1014,4 hPa 0,0 l/m SW 9,9 km/h (2 Bft)
16.05.2009 15:00 17,7 C 57 % 1014,2 hPa 0,0 l/m SW 14,9 km/h (3 Bft)
16.05.2009 16:00 18,1 C 54 % 1013,9 hPa 0,0 l/m W-SW 11,3 km/h (2 Bft)
16.05.2009 17:00 17,8 C 51 % 1013,9 hPa 0,0 l/m W-SW 8,8 km/h (2 Bft)
16.05.2009 18:00 18,2 C 48 % 1013,9 hPa 0,0 l/m W 7,2 km/h (2 Bft)
16.05.2009 19:00 17,3 C 56 % 1014,2 hPa 0,0 l/m W-NW 4,3 km/h (1 Bft)
16.05.2009 20:00 14,8 C 74 % 1014,5 hPa 0,0 l/m N 1,3 km/h (1 Bft)
16.05.2009 21:00 12,5 C 83 % 1015,1 hPa 0,0 l/m N 0,9 km/h (0 Bft)
16.05.2009 22:00 11,2 C 87 % 1015,3 hPa 0,0 l/m N 0,9 km/h (0 Bft)
16.05.2009 23:00 10,2 C 90 % 1015,2 hPa 0,0 l/m N 0,5 km/h (0 Bft)
17.05.2009 00:00 9,4 C 93 % 1015,1 hPa 0,0 l/m N 0,3 km/h (0 Bft)
17.05.2009 01:00 8,8 C 95 % 1015,2 hPa 0,0 l/m N 1,3 km/h (1 Bft)
17.05.2009 02:00 8,5 C 95 % 1015,1 hPa 0,0 l/m N 0,7 km/h (0 Bft)
17.05.2009 03:00 8,0 C 96 % 1014,6 hPa 0,0 l/m N 0,8 km/h (0 Bft)
17.05.2009 04:00 7,8 C 96 % 1014,2 hPa 0,0 l/m NW 0,9 km/h (0 Bft)
17.05.2009 05:00 8,0 C 97 % 1013,9 hPa 0,0 l/m N-NW 6,1 km/h (2 Bft)
17.05.2009 06:00 8,3 C 97 % 1013,7 hPa 0,0 l/m N-NW 4,3 km/h (1 Bft)
17.05.2009 07:00 9,9 C 94 % 1013,8 hPa 0,0 l/m N-NW 6,7 km/h (2 Bft)
17.05.2009 08:00 12,9 C 85 % 1013,6 hPa 0,0 l/m N-NO 4,0 km/h (1 Bft)
17.05.2009 09:00 15,9 C 77 % 1013,2 hPa 0,0 l/m O-NO 3,9 km/h (1 Bft)
17.05.2009 10:00 19,1 C 65 % 1012,9 hPa 0,0 l/m S-SW 7,0 km/h (2 Bft)
17.05.2009 11:00 22,1 C 50 % 1012,6 hPa 0,0 l/m S-SW 19,7 km/h (3 Bft)
17.05.2009 12:00 23,7 C 44 % 1012,4 hPa 0,0 l/m S-SW 21,8 km/h (4 Bft)
17.05.2009 13:00 25,1 C 38 % 1012,1 hPa 0,0 l/m SW 19,4 km/h (3 Bft)
17.05.2009 14:00 26,0 C 33 % 1011,7 hPa 0,0 l/m SW 19,2 km/h (3 Bft)
17.05.2009 15:00 26,8 C 26 % 1011,2 hPa 0,0 l/m SW 17,2 km/h (3 Bft)
17.05.2009 16:00 26,9 C 27 % 1010,9 hPa 0,0 l/m W 15,6 km/h (3 Bft)
17.05.2009 17:00 24,4 C 35 % 1010,6 hPa 0,0 l/m W 5,6 km/h (1 Bft)
17.05.2009 18:00 22,9 C 51 % 1010,3 hPa 0,0 l/m NW 2,0 km/h (1 Bft)
17.05.2009 19:00 20,9 C 55 % 1011,0 hPa 0,0 l/m N 18,8 km/h (3 Bft)
17.05.2009 20:00 19,0 C 65 % 1012,3 hPa 0,0 l/m NW 11,7 km/h (2 Bft)
17.05.2009 21:00 17,3 C 78 % 1013,7 hPa 0,6 l/m W-NW 4,0 km/h (1 Bft)
17.05.2009 22:00 16,2 C 79 % 1014,2 hPa 0,0 l/m W 8,8 km/h (2 Bft)
17.05.2009 23:00 15,7 C 78 % 1014,7 hPa 0,0 l/m W-NW 13,9 km/h (3 Bft)
Min-Datum _ 17.05.09 17.05.09 15.05.09 - - 11.05.09
_ Min-Zeit 04:40 15:15 17:10 - - 05:10
Minimum _ 7,6 C 22 % 1004,1 hPa - - 0,0 km/h (0 Bft)
Max-Datum _ 17.05.09 16.05.09 12.05.09 15.05.09 - 14.05.09
_ Max-Zeit 15:40 04:05 17:30 17:40 - 14:25
Maximum _ 27,3 C 100 % 1016,8 hPa 9,2 l/m - 35,4 km/h
W (5 Bft)
Durchschnitt _ 14,9 C 84 % 1011,6 hPa #44,2 l/m SW 7,6 km/h (2 Bft)